Terminal Aerodrome Forecast
Issued by NWS

Home | Current Version | Previous Version | Text Only | Print | Product List | Glossary On
Versions: 1 2 3 4 5 6 7 8 9 10 11 12 13
000
FTUS42 TJSJ 311700
TAFIST
TAF
TIST 311727Z 3118/0118 06005KT P6SM VCSH SCT025
     FM312300 06005KT P6SM FEW025
     FM011300 07012KT P6SM SCT025
      AMD NOT SKED=

USA.gov is the U.S. government's official web portal to all federal, state and local government web resources and services.